Airfield :
LOGIN :

Register | Disclaimer

   EN    FR    IT 

 










Legend :    VFR   Marginal VFR   IFR   Intensive IFR   Very Intensive IFR
Visi :
Ceiling :
>= 8 km
>= 3000ft
5 to 8 km
1000 to 3000 ft
1500m to 5 km
500 to 1000 ft
800 to 1500m
200 to 500 ft
< 800m
< 200 ft
Symbols :   Thunderstorms  Fog  Heavy snow  Heavy precipitations  Wind > 20 kt
SIGMETs :     Misc.  Thunderstorms  Icing  Turbulence  Mountain Waves  Volcanic Ashes







- Airport Elevation : 84 ft
- Download approach charts


LFBC - Cazaux

CURRENT METAR :
  • 171430Z AUTO 21004KT 170V260 CAVOK 21/M02 Q1019 NOSIG

EXPIRED METARs :
  • 171400Z AUTO 19004KT 090V260 CAVOK 21/01 Q1019 NOSIG
  • 171330Z AUTO 18003KT 110V220 CAVOK 20/01 Q1020 NOSIG
  • 171300Z AUTO 17005KT 130V210 CAVOK 20/02 Q1020 NOSIG
  • 171230Z AUTO 16004KT 100V200 CAVOK 19/01 Q1020 NOSIG
  • 171200Z AUTO 12004KT 070V180 CAVOK 17/04 Q1020 NOSIG

TAF TAF LFBC
Valid from the 17 at 09:00 until the 18 at 09:00 UTC


170800Z 1709/1809 15005KT 8000 NSC
TEMPO 1800/1808 2000 BR
PROB30
TEMPO 1803/1806 0500 BCFG
No reported NOTAMs for that airfield.



MET'MAP, your aeronautical weather chart ! - Copyright ORBIFLY December 2007 - Disclaimer

ORBIFLY MET'MAP TEAM :

Programming & Development : Alexandra Zaïnal
Concept & Development : Baudouin d'Aumeries
Co-Development & Prog : Marc-Olivier Méhu
Technical & hardware support : Manuel Goepfert

Contact : metmap@orbifly.com




SOURCES & CREDITS :

   NOAA